X  Cerrar Datos meteorológicos de aviación METAR        EGTE Exeter
Temperatura
64°F Temperatura
52°F Punto de rocío
64% Humedad



Viento
7 MPH
11 KM/H
3 M/S
6 NUDO



170°
S
Condiciones actuales

Mostly Sunny Mayormente soleado
Presión 1011 (hPa) - 29.85 (inHg)
Visibilidad 6 (milla) - 10 (km)
Aeropuerto
Código de aeropuerto EGTE

localidad: Exeter
Distancia: 32 (mi)

Metar:
METAR EGTE 141850Z 17006KT 9999 FEW040 18/11 Q1011

Hora: 14-07-2024 19:50 BST